Time;durP1;ratioP1;P1;durP2;ratioP2;P2;SDS_P1;SDS_P2;PMS_P1;PMS_P2;Temp;Humidity;BMP_temperature;BMP_pressure;BME280_temperature;BME280_humidity;BME280_pressure;Samples;Min_cycle;Max_cycle;Signal;HPM_P1;HPM_P2
2023/03/26 00:01:23;;;;;;;5.03;1.23;;;11.60;59.60;;;6.87;88.48;95184.34;5011722;28;20029;-47
2023/03/26 00:03:56;;;;;;;4.28;1.05;;;11.60;59.60;;;6.87;88.41;95184.34;5012667;28;20091;-47
2023/03/26 00:06:38;;;;;;;2.55;1.00;;;11.60;59.60;;;6.82;88.95;95176.34;5000059;28;20385;-47
2023/03/26 00:09:12;;;;;;;6.63;1.27;;;11.60;59.60;;;6.82;88.72;95176.34;4992985;28;20079;-48
2023/03/26 00:11:37;;;;;;;3.00;0.98;;;11.60;59.70;;;6.82;88.40;95176.34;4975473;28;20030;-48
2023/03/26 00:14:04;;;;;;;2.15;1.00;;;11.60;59.60;;;6.77;87.60;95168.31;5004011;28;20414;-47
2023/03/26 00:16:32;;;;;;;4.07;0.82;;;11.50;59.60;;;6.75;88.93;95179.19;5012141;28;20059;-50
2023/03/26 00:19:00;;;;;;;3.58;1.20;;;11.50;59.70;;;6.76;88.95;95164.88;4993556;28;20021;-51
2023/03/26 00:21:29;;;;;;;3.13;0.98;;;11.50;59.70;;;6.71;88.84;95168.28;5012095;28;20041;-48
2023/03/26 00:24:07;;;;;;;2.90;1.17;;;11.50;59.80;;;6.74;89.15;95164.34;5009345;28;20481;-54
2023/03/26 00:26:37;;;;;;;5.80;1.80;;;11.50;59.90;;;6.72;89.04;95167.25;5007828;28;20031;-47
2023/03/26 00:29:05;;;;;;;4.32;0.88;;;11.50;59.90;;;6.73;88.63;95165.38;5007429;28;20029;-51
2023/03/26 00:31:32;;;;;;;3.00;1.00;;;11.50;59.80;;;6.70;88.60;95158.75;5010241;28;20057;-48
2023/03/26 00:34:01;;;;;;;1.80;0.80;;;11.50;59.90;;;6.66;88.85;95162.94;5012327;28;20025;-48
2023/03/26 00:36:28;;;;;;;2.67;0.90;;;11.50;59.80;;;6.65;88.91;95166.66;5011960;28;20021;-48
2023/03/26 00:38:54;;;;;;;4.68;0.98;;;11.50;59.90;;;6.65;89.63;95161.34;5010990;28;20041;-47
2023/03/26 00:41:25;;;;;;;4.18;1.10;;;11.40;59.80;;;6.64;89.57;95159.75;5011815;28;20490;-47
2023/03/26 00:43:57;;;;;;;2.10;1.00;;;11.40;59.90;;;6.59;89.79;95151.75;5010871;28;20037;-47
2023/03/26 00:46:28;;;;;;;3.38;1.13;;;11.40;60.00;;;6.59;89.62;95154.41;5011978;28;20016;-48
2023/03/26 00:48:57;;;;;;;4.32;1.00;;;11.40;59.90;;;6.58;89.07;95154.66;5011239;28;20025;-48
2023/03/26 00:51:25;;;;;;;2.70;0.80;;;11.30;60.70;;;6.62;88.91;95150.47;5011827;28;20036;-47
2023/03/26 00:53:51;;;;;;;1.80;0.70;;;11.30;59.90;;;6.58;89.13;95150.19;5011887;28;20514;-52
2023/03/26 00:56:18;;;;;;;2.78;0.85;;;11.30;60.00;;;6.58;88.30;95152.00;5011025;28;20032;-48
2023/03/26 00:58:46;;;;;;;2.15;0.90;;;11.30;60.00;;;6.59;88.82;95148.31;5011733;28;20053;-48
2023/03/26 01:01:26;;;;;;;2.05;0.70;;;11.30;60.10;;;6.60;88.63;95137.47;5010928;28;20499;-47
2023/03/26 01:03:58;;;;;;;3.13;0.95;;;11.30;60.20;;;6.59;89.06;95135.09;5011803;28;20021;-49
2023/03/26 01:06:34;;;;;;;1.40;0.88;;;11.30;60.10;;;6.52;89.73;95135.28;5011729;28;20071;-49
2023/03/26 01:09:24;;;;;;;2.60;0.88;;;11.30;60.20;;;6.50;90.32;95124.16;5010885;28;20033;-51
2023/03/26 01:11:50;;;;;;;2.97;0.88;;;11.30;60.20;;;6.48;90.94;95134.97;5010748;28;20013;-51
2023/03/26 01:14:23;;;;;;;2.03;1.00;;;11.20;60.10;;;6.46;90.50;95129.16;5011229;28;20048;-52
2023/03/26 01:17:02;;;;;;;2.08;1.00;;;11.20;60.30;;;6.41;90.78;95128.28;5010529;28;20407;-49
2023/03/26 01:20:25;;;;;;;3.72;0.98;;;11.30;60.40;;;6.40;91.27;95106.31;5009395;28;20427;-48
2023/03/26 01:23:04;;;;;;;1.38;0.70;;;11.20;60.40;;;6.40;91.30;95110.81;5011509;28;20049;-50
2023/03/26 01:25:43;;;;;;;5.43;0.82;;;11.20;60.40;;;6.36;90.93;95107.06;5009138;28;20025;-50
2023/03/26 01:28:11;;;;;;;1.45;0.70;;;11.10;60.40;;;6.31;91.46;95101.75;4994717;28;20025;-51
2023/03/26 01:31:00;;;;;;;5.28;0.88;;;11.10;60.40;;;6.32;91.20;95087.44;5011451;28;20151;-49
2023/03/26 01:33:44;;;;;;;3.20;0.95;;;11.10;60.50;;;6.20;92.39;95088.38;5004991;28;20055;-52
2023/03/26 01:36:23;;;;;;;2.25;1.00;;;11.10;60.60;;;6.23;92.35;95077.31;5011491;28;20649;-50
2023/03/26 01:39:17;;;;;;;4.20;1.00;;;11.00;60.60;;;6.18;91.93;95073.84;4977403;28;20037;-50
2023/03/26 01:42:07;;;;;;;2.47;0.98;;;10.90;60.70;;;6.12;92.49;95067.69;4991786;28;20022;-50
2023/03/26 01:44:52;;;;;;;8.63;1.10;;;10.90;60.80;;;6.06;93.01;95065.25;4992833;28;20021;-48
2023/03/26 01:47:20;;;;;;;3.67;0.90;;;10.80;60.80;;;6.01;93.19;95053.53;5015329;28;20074;-50
2023/03/26 01:49:47;;;;;;;2.42;1.13;;;10.80;60.90;;;5.92;93.90;95052.38;4997142;28;20056;-48
2023/03/26 01:52:23;;;;;;;1.98;0.80;;;10.80;61.00;;;5.91;94.03;95052.63;5015062;28;20470;-49
2023/03/26 01:54:51;;;;;;;3.72;1.02;;;10.70;61.10;;;5.93;94.13;95050.56;5014104;28;20033;-50
2023/03/26 01:58:31;;;;;;;2.50;1.02;;;10.70;61.10;;;5.89;94.05;95044.13;4981583;28;20028;-48
2023/03/26 02:01:29;;;;;;;4.32;1.00;;;10.70;61.20;;;5.81;94.57;95029.50;5013580;28;20033;-52
2023/03/26 02:04:37;;;;;;;2.10;1.17;;;10.60;61.40;;;5.79;95.15;95015.75;5014802;28;20037;-48
2023/03/26 02:07:20;;;;;;;3.72;1.40;;;10.60;61.40;;;5.75;95.14;95010.16;5013646;28;20094;-48
2023/03/26 02:09:59;;;;;;;3.00;1.05;;;10.50;61.50;;;5.73;94.84;95006.16;5014834;28;20029;-50
2023/03/26 02:12:29;;;;;;;4.88;1.10;;;10.50;61.50;;;5.67;94.41;95002.69;4997596;28;20029;-51
2023/03/26 02:14:54;;;;;;;5.78;1.20;;;10.50;61.60;;;5.70;94.50;95007.47;5013861;28;20112;-53
2023/03/26 02:17:23;;;;;;;3.13;1.33;;;10.40;61.50;;;5.70;94.55;94990.78;5014683;28;20100;-50
2023/03/26 02:19:50;;;;;;;2.95;1.00;;;10.40;61.70;;;5.63;94.58;94988.34;5013385;28;20507;-49
2023/03/26 02:22:16;;;;;;;3.80;1.48;;;10.40;61.70;;;5.69;94.60;94984.72;5014434;28;20029;-48
2023/03/26 02:24:43;;;;;;;3.35;1.15;;;10.40;61.80;;;5.70;94.09;94996.09;5013677;28;20400;-48
2023/03/26 02:27:11;;;;;;;4.00;1.08;;;10.40;61.90;;;5.71;93.75;94980.00;5014554;28;20433;-47
2023/03/26 02:29:39;;;;;;;1.75;1.00;;;10.40;62.70;;;5.72;95.01;94975.50;5014475;28;20025;-47
2023/03/26 02:32:11;;;;;;;4.00;1.10;;;10.40;61.90;;;5.76;94.73;94960.72;5013035;28;20224;-49
2023/03/26 02:34:41;;;;;;;1.38;0.90;;;10.50;62.00;;;5.74;94.49;94953.06;5013004;28;20418;-48
2023/03/26 02:37:09;;;;;;;3.78;1.00;;;10.50;62.00;;;5.79;94.32;94953.09;5011761;28;20025;-49
2023/03/26 02:39:35;;;;;;;3.50;1.10;;;10.50;62.10;;;5.76;94.02;94943.03;5011940;28;20041;-51
2023/03/26 02:42:01;;;;;;;3.65;1.30;;;10.50;62.10;;;5.74;92.41;94934.56;5009240;28;20028;-49
2023/03/26 02:44:27;;;;;;;1.23;1.05;;;10.50;62.10;;;5.82;93.72;94928.03;5011064;28;20507;-48
2023/03/26 02:46:53;;;;;;;3.10;1.08;;;10.50;62.10;;;5.87;93.35;94927.28;5013910;28;20045;-49
2023/03/26 02:49:19;;;;;;;1.38;0.90;;;10.50;62.10;;;5.79;94.00;94916.09;5012914;28;20053;-52
2023/03/26 02:51:45;;;;;;;1.38;0.80;;;10.60;62.10;;;5.85;93.91;94916.94;5001860;28;20029;-47
2023/03/26 02:54:10;;;;;;;4.88;1.30;;;10.60;62.10;;;5.81;94.60;94923.78;4993842;28;20017;-48
2023/03/26 02:56:36;;;;;;;4.38;1.10;;;10.50;62.10;;;5.85;94.46;94918.81;5009067;28;20025;-48
2023/03/26 02:59:02;;;;;;;2.67;0.90;;;10.60;62.20;;;5.79;94.45;94905.53;5012135;28;20037;-50
2023/03/26 03:01:33;;;;;;;3.05;1.23;;;10.60;62.20;;;5.83;94.03;94903.22;5012555;28;20638;-52
2023/03/26 03:04:02;;;;;;;1.98;1.02;;;10.50;62.10;;;5.83;94.67;94894.47;5013710;28;20483;-47
2023/03/26 03:06:29;;;;;;;2.63;1.00;;;10.60;62.20;;;5.82;95.14;94891.03;5012567;28;20422;-46
2023/03/26 03:08:55;;;;;;;2.22;1.08;;;10.60;62.20;;;5.80;94.87;94890.50;5012848;28;20028;-50
2023/03/26 03:11:23;;;;;;;2.58;1.10;;;10.60;62.30;;;5.78;95.52;94893.38;5013599;28;20506;-49
2023/03/26 03:13:50;;;;;;;2.22;1.15;;;10.60;62.30;;;5.80;96.08;94874.63;5012605;28;20047;-52
2023/03/26 03:16:16;;;;;;;3.88;1.38;;;10.60;62.40;;;5.79;96.63;94886.25;5013697;28;20033;-49
2023/03/26 03:18:43;;;;;;;2.38;1.70;;;10.60;62.50;;;5.74;97.63;94902.06;5013250;28;20036;-52
2023/03/26 03:21:09;;;;;;;3.05;1.30;;;10.60;62.40;;;5.78;97.04;94888.09;5013041;28;20044;-49
2023/03/26 03:23:35;;;;;;;3.42;1.20;;;10.60;62.50;;;5.79;97.29;94888.88;4995880;28;20096;-49
2023/03/26 03:26:01;;;;;;;4.70;1.27;;;10.60;62.60;;;5.82;97.10;94882.28;5013056;28;20368;-52
2023/03/26 03:28:27;;;;;;;4.32;1.02;;;10.50;62.60;;;5.82;96.77;94882.28;5014014;28;20411;-50
2023/03/26 03:30:56;;;;;;;3.13;1.20;;;10.50;62.70;;;5.85;96.66;94876.50;5013186;28;20025;-52
2023/03/26 03:33:23;;;;;;;3.95;1.30;;;10.50;62.70;;;5.80;99.64;94877.28;5013737;28;20483;-47
2023/03/26 03:35:50;;;;;;;7.30;4.88;;;10.50;62.80;;;5.69;100.00;94863.16;5014201;28;20472;-48
2023/03/26 03:38:18;;;;;;;3.67;1.33;;;10.50;62.90;;;5.75;100.00;94871.94;5011666;28;20025;-50
2023/03/26 03:40:44;;;;;;;2.08;1.30;;;10.50;63.80;;;5.75;100.00;94869.28;4996054;28;20063;-48
2023/03/26 03:43:10;;;;;;;2.08;1.20;;;10.40;63.00;;;5.73;100.00;94866.09;5013066;28;20047;-51
2023/03/26 03:45:36;;;;;;;3.17;1.20;;;10.40;63.10;;;5.72;99.90;94862.66;5014208;28;20021;-50
2023/03/26 03:48:02;;;;;;;2.15;1.20;;;10.40;63.20;;;5.65;100.00;94854.16;5013581;28;20021;-47
2023/03/26 03:50:28;;;;;;;4.85;1.55;;;10.40;63.30;;;5.64;100.00;94857.84;5012643;28;20029;-52
2023/03/26 03:52:54;;;;;;;2.65;1.00;;;10.40;63.30;;;5.65;100.00;94845.44;5013614;28;20021;-53
2023/03/26 03:55:22;;;;;;;2.92;1.30;;;10.40;63.40;;;5.54;100.00;94855.09;5012319;28;20024;-51
2023/03/26 03:57:49;;;;;;;4.65;1.55;;;10.30;63.40;;;5.56;100.00;94856.44;5013493;28;20027;-50
2023/03/26 04:00:16;;;;;;;2.78;1.40;;;10.30;63.60;;;5.52;100.00;94846.63;5010954;28;20571;-53
2023/03/26 04:02:44;;;;;;;4.00;1.38;;;10.30;63.60;;;5.51;100.00;94843.19;5001507;28;20049;-52
2023/03/26 04:05:12;;;;;;;2.65;1.40;;;10.30;63.80;;;5.47;100.00;94842.09;4994702;28;20045;-47
2023/03/26 04:07:39;;;;;;;3.03;1.65;;;10.30;64.60;;;5.47;100.00;94841.31;5011860;28;20109;-47
2023/03/26 04:10:08;;;;;;;3.80;1.50;;;10.20;63.80;;;5.45;100.00;94838.09;4994849;28;20075;-50
2023/03/26 04:12:34;;;;;;;2.88;1.50;;;10.20;64.00;;;5.46;100.00;94831.78;5012613;28;20098;-50
2023/03/26 04:15:00;;;;;;;3.05;1.48;;;10.20;64.00;;;5.45;100.00;94825.72;5011476;28;20025;-51
2023/03/26 04:17:29;;;;;;;2.08;1.17;;;10.20;64.10;;;5.46;100.00;94821.22;5012732;28;20108;-49
2023/03/26 04:19:55;;;;;;;2.33;1.33;;;10.20;64.10;;;5.44;100.00;94813.53;5001414;28;20065;-49
2023/03/26 04:22:22;;;;;;;4.90;1.33;;;10.20;64.10;;;5.39;100.00;94805.59;4992264;28;20037;-48
2023/03/26 04:24:49;;;;;;;3.42;1.27;;;10.20;64.20;;;5.30;100.00;94794.66;4992926;28;20061;-47
2023/03/26 04:27:24;;;;;;;5.13;1.38;;;10.20;64.30;;;5.33;100.00;94799.44;5012419;28;20068;-49
2023/03/26 04:29:51;;;;;;;2.03;1.10;;;10.20;64.40;;;5.32;100.00;94789.13;4995581;28;20488;-50
2023/03/26 04:32:28;;;;;;;1.90;1.48;;;10.10;64.30;;;5.23;100.00;94770.31;5011136;28;20028;-48
2023/03/26 04:34:59;;;;;;;4.82;1.40;;;10.10;64.60;;;5.32;100.00;94768.00;5010966;28;20040;-48
2023/03/26 04:37:38;;;;;;;5.07;1.20;;;10.10;64.60;;;5.33;100.00;94778.31;4980984;28;20032;-49
2023/03/26 04:40:14;;;;;;;3.33;1.05;;;10.10;64.70;;;5.26;100.00;94777.72;4994881;28;20090;-48
2023/03/26 04:42:45;;;;;;;2.28;1.13;;;10.20;64.70;;;5.34;100.00;94772.00;5011679;28;20048;-57
2023/03/26 04:45:16;;;;;;;2.13;0.93;;;10.10;64.60;;;5.41;100.00;94774.41;4992512;28;20033;-49
2023/03/26 04:47:45;;;;;;;1.83;0.82;;;10.10;64.70;;;5.36;100.00;94763.81;4992493;28;20477;-49
2023/03/26 04:50:11;;;;;;;4.30;1.10;;;10.20;64.70;;;5.43;100.00;94768.91;5003276;28;20029;-48
2023/03/26 04:52:37;;;;;;;4.22;1.10;;;10.10;64.70;;;5.46;100.00;94766.53;5011882;28;20021;-49
2023/03/26 04:55:30;;;;;;;2.28;1.20;;;10.10;64.60;;;5.48;100.00;94763.63;4993569;28;20105;-49
2023/03/26 04:58:04;;;;;;;2.28;1.10;;;10.20;64.70;;;5.49;100.00;94762.59;5010758;28;20511;-50
2023/03/26 05:00:31;;;;;;;2.05;1.10;;;10.20;64.60;;;5.50;100.00;94754.41;5011920;28;20439;-51
2023/03/26 05:02:58;;;;;;;2.08;1.20;;;10.20;65.30;;;5.45;100.00;94748.28;5008952;28;20048;-48
2023/03/26 05:05:27;;;;;;;4.82;2.95;;;10.20;64.60;;;5.38;100.00;94735.31;4994475;28;20028;-48
2023/03/26 05:07:55;;;;;;;5.47;1.38;;;10.30;64.60;;;5.41;100.00;94734.78;4993732;28;20021;-47
2023/03/26 05:10:21;;;;;;;3.42;1.20;;;10.20;64.60;;;5.39;100.00;94741.38;4999960;28;20071;-54
2023/03/26 05:12:48;;;;;;;3.80;1.05;;;10.20;64.50;;;5.40;100.00;94735.06;4991823;28;20116;-48
2023/03/26 05:15:15;;;;;;;8.98;1.15;;;10.20;64.60;;;5.43;100.00;94731.91;5011948;28;20539;-48
2023/03/26 05:17:42;;;;;;;2.08;1.00;;;10.20;64.60;;;5.45;100.00;94727.16;5014407;28;20028;-49
2023/03/26 05:20:25;;;;;;;2.83;0.90;;;10.20;64.60;;;5.45;100.00;94719.25;5029601;23;20037;-55
2023/03/26 05:22:52;;;;;;;1.52;0.90;;;10.20;64.70;;;5.47;100.00;94717.94;5012888;28;20051;-54
2023/03/26 05:25:18;;;;;;;5.00;1.02;;;10.20;64.60;;;5.43;100.00;94714.22;5014243;28;20029;-50
2023/03/26 05:27:45;;;;;;;1.35;0.80;;;10.30;64.70;;;5.41;100.00;94713.66;5015430;28;20059;-47
2023/03/26 05:30:18;;;;;;;2.38;0.95;;;10.30;64.70;;;5.39;100.00;94699.13;5015357;28;20088;-51
2023/03/26 05:32:48;;;;;;;1.80;1.30;;;10.20;64.70;;;5.42;100.00;94694.16;4998426;28;20032;-49
2023/03/26 05:35:15;;;;;;;6.45;1.42;;;10.20;64.70;;;5.42;99.66;94688.88;4995527;28;20022;-51
2023/03/26 05:37:44;;;;;;;3.10;0.90;;;10.30;64.70;;;5.47;99.75;94688.09;4994457;28;20034;-50
2023/03/26 05:40:13;;;;;;;2.35;1.00;;;10.20;64.60;;;5.51;99.71;94697.09;4995430;28;20400;-48
2023/03/26 05:42:40;;;;;;;2.83;1.10;;;10.30;64.70;;;5.50;100.00;94688.38;4995517;28;20026;-50
2023/03/26 05:45:11;;;;;;;2.42;1.50;;;10.30;64.70;;;5.54;99.86;94702.66;4974183;28;20034;-50
2023/03/26 05:47:37;;;;;;;2.38;0.80;;;10.30;64.70;;;5.53;99.49;94697.66;4975837;28;20542;-51
2023/03/26 05:50:06;;;;;;;1.92;0.90;;;10.30;64.60;;;5.55;99.34;94704.28;4986052;28;20357;-51
2023/03/26 05:52:32;;;;;;;3.70;0.93;;;10.30;64.60;;;5.55;99.76;94701.63;4995202;28;20080;-50
2023/03/26 05:54:58;;;;;;;1.95;0.80;;;10.30;64.60;;;5.60;99.69;94702.72;4994308;28;20391;-49
2023/03/26 05:57:27;;;;;;;3.85;2.00;;;10.30;64.60;;;5.59;100.00;94701.91;4994220;28;20025;-51
2023/03/26 05:59:55;;;;;;;2.17;0.98;;;10.30;64.70;;;5.59;100.00;94694.00;4995106;28;20036;-49
2023/03/26 06:02:21;;;;;;;2.03;0.82;;;10.40;64.70;;;5.60;100.00;94692.13;4993775;28;20026;-50
2023/03/26 06:04:47;;;;;;;3.90;0.90;;;10.30;64.60;;;5.52;100.00;94688.13;4995007;28;20488;-47
2023/03/26 06:07:15;;;;;;;3.72;1.10;;;10.30;64.60;;;5.55;100.00;94685.00;4990765;28;20018;-47
2023/03/26 06:09:41;;;;;;;2.63;1.10;;;10.30;64.70;;;5.45;100.00;94672.50;4981839;28;20427;-47
2023/03/26 06:12:10;;;;;;;3.15;1.38;;;10.30;64.70;;;5.35;100.00;94661.84;4994946;28;20021;-46
2023/03/26 06:14:37;;;;;;;2.63;1.75;;;10.30;64.90;;;5.35;100.00;94640.72;4994021;28;20053;-49
2023/03/26 06:17:03;;;;;;;2.95;0.98;;;10.30;65.60;;;5.38;100.00;94619.09;4994741;28;20022;-47
2023/03/26 06:19:29;;;;;;;2.65;0.73;;;10.20;64.90;;;5.40;100.00;94605.66;4994020;28;20052;-47
2023/03/26 06:21:55;;;;;;;1.58;0.70;;;10.20;64.90;;;5.43;100.00;94599.84;4994291;28;20411;-46
2023/03/26 06:24:20;;;;;;;2.30;0.80;;;10.30;65.00;;;5.47;100.00;94612.28;4994628;28;20128;-47
2023/03/26 06:26:47;;;;;;;2.28;0.90;;;10.30;65.00;;;5.49;100.00;94615.47;4993822;28;20104;-46
2023/03/26 06:29:14;;;;;;;4.13;0.90;;;10.30;65.10;;;5.53;100.00;94623.69;4993653;28;20021;-50
2023/03/26 06:31:41;;;;;;;4.45;0.93;;;10.30;65.20;;;5.53;100.00;94610.47;4987337;28;20121;-46
2023/03/26 06:34:07;;;;;;;2.10;0.90;;;10.30;65.20;;;5.55;100.00;94613.66;4992398;28;20021;-47
2023/03/26 06:36:33;;;;;;;4.15;1.00;;;10.30;65.30;;;5.57;100.00;94616.81;4994490;28;20022;-49
2023/03/26 06:38:59;;;;;;;2.40;0.88;;;10.30;65.30;;;5.59;100.00;94630.59;5011468;28;20039;-51
2023/03/26 06:41:25;;;;;;;3.65;0.90;;;10.30;65.50;;;5.62;100.00;94630.06;4956496;28;27288;-47
2023/03/26 06:43:51;;;;;;;2.58;1.00;;;10.40;65.50;;;5.67;100.00;94624.81;4936711;28;20487;-53
2023/03/26 06:46:19;;;;;;;1.63;1.00;;;10.40;65.50;;;5.69;100.00;94633.28;4974728;28;20022;-54
2023/03/26 06:48:45;;;;;;;3.55;1.45;;;10.40;65.50;;;5.68;100.00;94641.47;4974473;28;20406;-48
2023/03/26 06:51:11;;;;;;;3.15;1.17;;;10.40;65.60;;;5.70;100.00;94649.91;4994491;28;20056;-50
2023/03/26 06:53:37;;;;;;;2.30;1.50;;;10.40;65.50;;;5.70;100.00;94647.28;4994251;28;20025;-50
2023/03/26 06:56:03;;;;;;;3.05;2.03;;;10.50;65.70;;;5.67;100.00;94651.25;4993530;28;20407;-47
2023/03/26 06:58:29;;;;;;;3.50;1.75;;;10.50;65.70;;;5.67;100.00;94650.44;4994018;28;20057;-47
2023/03/26 07:00:56;;;;;;;8.77;1.35;;;10.40;65.70;;;5.65;100.00;94644.63;4993041;28;20478;-54
2023/03/26 07:03:22;;;;;;;2.92;1.20;;;10.50;65.80;;;5.62;100.00;94626.63;4993732;28;20026;-47
2023/03/26 07:05:48;;;;;;;2.28;1.20;;;10.40;65.70;;;5.56;100.00;94618.69;4994199;28;20408;-49
2023/03/26 07:08:15;;;;;;;4.63;0.80;;;10.40;65.70;;;5.55;100.00;94616.31;4993478;28;20387;-52
2023/03/26 07:10:41;;;;;;;5.07;1.10;;;10.40;65.70;;;5.53;100.00;94611.25;4979622;28;20026;-46
2023/03/26 07:13:07;;;;;;;4.90;1.10;;;10.30;65.70;;;5.49;100.00;94612.03;4976591;28;20128;-51
2023/03/26 07:15:33;;;;;;;2.65;1.05;;;10.30;65.80;;;5.45;100.00;94606.47;4993717;28;20045;-49
2023/03/26 07:17:59;;;;;;;3.25;1.10;;;10.30;65.80;;;5.44;100.00;94604.88;4993926;28;20048;-46
2023/03/26 07:20:25;;;;;;;1.77;0.70;;;10.30;65.90;;;5.45;100.00;94614.41;4992869;28;20048;-49
2023/03/26 07:22:52;;;;;;;2.97;0.98;;;10.30;66.00;;;5.48;100.00;94605.16;4993454;28;20021;-47
2023/03/26 07:25:19;;;;;;;2.80;1.00;;;10.30;66.10;;;5.53;100.00;94591.97;4993065;28;20053;-48
2023/03/26 07:28:25;;;;;;;1.83;0.80;;;10.30;66.20;;;5.59;100.00;94598.09;4993488;28;20028;-47
2023/03/26 07:31:33;;;;;;;6.78;1.00;;;10.30;66.30;;;5.63;100.00;94609.72;4972973;28;20084;-47
2023/03/26 07:34:30;;;;;;;2.97;0.80;;;10.30;66.40;;;5.66;100.00;94609.22;4976834;28;20025;-50
2023/03/26 07:37:55;;;;;;;2.47;1.08;;;10.30;66.40;;;5.71;100.00;94586.25;4967679;28;20018;-47
2023/03/26 07:40:49;;;;;;;2.13;0.90;;;10.30;66.40;;;5.70;100.00;94582.03;4950682;28;20073;-50
2023/03/26 07:44:11;;;;;;;1.83;1.20;;;10.40;66.40;;;5.70;100.00;94578.56;4977142;28;20026;-53
2023/03/26 07:46:38;;;;;;;2.80;1.13;;;10.40;66.40;;;5.60;100.00;94578.53;4949417;28;20042;-49
2023/03/26 07:49:05;;;;;;;1.33;0.90;;;10.40;66.20;;;5.60;100.00;94579.31;4992455;28;20248;-49
2023/03/26 07:51:32;;;;;;;2.05;1.05;;;10.40;66.20;;;5.64;100.00;94569.84;4992976;28;20025;-48
2023/03/26 07:53:59;;;;;;;4.03;1.20;;;10.40;66.30;;;5.70;100.00;94568.81;4993215;28;20045;-51
2023/03/26 07:56:38;;;;;;;2.28;1.00;;;10.40;66.30;;;5.73;100.00;94560.34;4979150;28;20555;-51
2023/03/26 07:59:44;;;;;;;5.80;1.30;;;10.50;66.40;;;5.69;100.00;94561.13;4973140;28;20113;-47
2023/03/26 08:03:06;;;;;;;1.83;1.05;;;10.50;66.30;;;5.72;100.00;94558.78;4980512;28;20064;-48
2023/03/26 08:05:49;;;;;;;3.67;0.90;;;10.50;66.20;;;5.73;100.00;94554.28;4991900;28;20660;-52
2023/03/26 08:08:51;;;;;;;2.22;0.88;;;10.60;66.30;;;5.72;100.00;94556.13;4975326;28;20034;-53
2023/03/26 08:11:41;;;;;;;2.15;1.10;;;10.60;66.30;;;5.70;100.00;94552.97;4991473;28;20365;-49
2023/03/26 08:14:47;;;;;;;2.22;0.98;;;10.70;66.20;;;5.70;100.00;94545.03;4992073;28;20034;-48
2023/03/26 08:17:56;;;;;;;3.53;1.05;;;10.70;66.10;;;5.71;100.00;94535.25;4975460;28;20029;-48
2023/03/26 08:20:49;;;;;;;1.27;0.80;;;10.70;66.10;;;5.71;100.00;94536.06;4974601;28;20531;-48
2023/03/26 08:23:55;;;;;;;1.77;0.90;;;10.80;66.10;;;5.77;100.00;94532.38;4975343;28;20025;-48
2023/03/26 08:27:12;;;;;;;2.20;0.90;;;10.90;65.80;;;5.71;100.00;94535.25;4973769;28;20371;-55
2023/03/26 08:30:02;;;;;;;3.17;0.93;;;11.00;65.70;;;5.71;100.00;94537.91;4991460;28;20029;-53
2023/03/26 08:32:29;;;;;;;0.75;0.73;;;10.90;65.50;;;5.72;100.00;94542.13;5000101;28;20037;-53
2023/03/26 08:34:56;;;;;;;1.67;0.90;;;10.80;65.50;;;5.79;100.00;94550.59;4992143;28;20033;-54
2023/03/26 08:37:22;;;;;;;4.50;1.02;;;10.80;65.60;;;5.86;100.00;94539.78;4991436;28;20034;-52
2023/03/26 08:39:48;;;;;;;2.17;0.90;;;10.70;65.70;;;5.83;100.00;94540.31;4992215;28;20030;-51
2023/03/26 08:43:22;;;;;;;3.05;1.27;;;10.70;65.80;;;5.80;100.00;94539.00;4991975;28;20091;-47
2023/03/26 08:47:01;;;;;;;2.20;1.25;;;10.70;66.00;;;5.75;100.00;94544.25;4972754;28;20578;-48
2023/03/26 08:50:02;;;;;;;2.72;0.88;;;10.70;65.80;;;5.74;100.00;94524.19;4959412;28;20545;-54
2023/03/26 08:52:50;;;;;;;3.67;1.25;;;10.70;66.00;;;5.80;100.00;94528.44;4982111;28;20465;-55
2023/03/26 08:55:51;;;;;;;2.92;1.45;;;10.90;66.00;;;5.86;100.00;94530.03;4976369;28;20021;-50
2023/03/26 08:59:32;;;;;;;2.67;1.10;;;11.00;65.80;;;5.99;100.00;94534.06;4986634;28;20037;-52
2023/03/26 09:03:07;;;;;;;2.25;0.80;;;11.20;65.60;;;6.13;100.00;94540.41;4981030;28;20436;-54
2023/03/26 09:06:37;;;;;;;2.22;0.90;;;11.30;65.50;;;6.23;100.00;94540.44;4942560;28;20046;-53
2023/03/26 09:10:11;;;;;;;3.90;1.17;;;11.40;66.10;;;6.31;100.00;94557.66;4988267;28;20500;-53
2023/03/26 09:13:03;;;;;;;2.22;1.20;;;11.40;65.40;;;6.26;100.00;94592.78;4954902;28;20125;-54
2023/03/26 09:16:21;;;;;;;4.57;1.40;;;11.30;65.30;;;6.18;100.00;94582.75;4959271;28;20511;-57
2023/03/26 09:18:57;;;;;;;2.38;1.58;;;11.30;65.50;;;6.10;100.00;94577.97;4969272;28;20030;-56
2023/03/26 09:21:44;;;;;;;3.45;1.35;;;11.10;65.60;;;6.07;100.00;94598.84;4957987;28;20038;-48
2023/03/26 09:25:05;;;;;;;2.17;1.30;;;11.00;65.90;;;6.01;100.00;94547.78;4969588;28;20392;-51
2023/03/26 09:28:30;;;;;;;4.60;1.08;;;10.90;66.20;;;6.10;100.00;94526.94;4975004;28;20052;-50
2023/03/26 09:31:56;;;;;;;1.42;1.20;;;11.00;66.40;;;6.29;100.00;94535.94;4969220;28;20389;-49
2023/03/26 09:34:37;;;;;;;3.65;1.13;;;11.40;66.30;;;6.63;100.00;94551.31;4973520;28;20049;-51
2023/03/26 09:37:39;;;;;;;2.20;0.95;;;11.90;66.10;;;6.97;100.00;94559.53;4973211;28;20026;-49
2023/03/26 09:40:21;;;;;;;3.85;1.02;;;12.30;65.90;;;7.18;100.00;94562.94;4972007;28;20038;-49
2023/03/26 09:43:35;;;;;;;2.65;1.13;;;12.50;65.80;;;7.38;100.00;94578.78;4969919;28;20030;-55
2023/03/26 09:46:28;;;;;;;2.53;1.20;;;12.70;65.70;;;7.62;100.00;94580.88;4972551;28;20022;-49
2023/03/26 09:49:51;;;;;;;3.83;1.52;;;13.00;65.50;;;7.82;100.00;94587.94;4953468;28;20045;-52
2023/03/26 09:52:56;;;;;;;1.77;1.33;;;13.30;65.20;;;7.88;100.00;94595.59;4970081;28;20030;-58
2023/03/26 09:56:00;;;;;;;1.70;1.10;;;13.40;65.80;;;7.84;99.58;94599.88;4972207;28;20022;-51
2023/03/26 09:59:29;;;;;;;4.20;1.20;;;13.40;64.90;;;7.92;97.11;94597.72;4970269;28;20057;-56
2023/03/26 10:02:42;;;;;;;3.90;1.25;;;13.40;64.90;;;7.97;94.78;94587.88;4966866;28;20034;-55
2023/03/26 10:06:00;;;;;;;2.38;1.00;;;13.40;64.90;;;8.13;95.56;94593.13;4951667;28;20041;-56
2023/03/26 10:08:51;;;;;;;2.53;1.45;;;13.60;64.70;;;8.41;94.91;94581.84;4989295;28;20034;-54
2023/03/26 10:11:55;;;;;;;1.58;0.93;;;13.90;64.60;;;8.58;89.30;94576.94;4971991;28;20105;-55
2023/03/26 10:14:56;;;;;;;0.98;0.90;;;14.20;64.30;;;8.68;91.55;94580.59;4976892;28;20140;-56
2023/03/26 10:17:47;;;;;;;3.03;1.38;;;14.40;63.90;;;8.80;89.93;94581.03;4984664;28;20018;-53
2023/03/26 10:21:10;;;;;;;1.35;0.88;;;14.50;63.50;;;8.77;85.37;94586.91;4968116;28;20117;-55
2023/03/26 10:24:17;;;;;;;3.57;0.97;;;14.60;63.10;;;8.82;86.12;94586.88;4937381;28;20030;-53
2023/03/26 10:27:09;;;;;;;2.40;1.23;;;14.60;62.60;;;8.89;84.48;94597.97;4932531;28;20031;-51
2023/03/26 10:30:37;;;;;;;2.22;0.90;;;14.70;62.60;;;9.14;85.32;94585.56;4974571;28;20067;-52
2023/03/26 10:33:30;;;;;;;2.47;1.00;;;14.80;62.10;;;9.26;82.46;94581.47;4931368;29;20150;-50
2023/03/26 10:36:33;;;;;;;1.40;1.00;;;14.90;61.90;;;9.34;84.88;94580.06;4974019;28;20037;-54
2023/03/26 10:39:37;;;;;;;;;;;15.00;61.50;;;9.33;82.23;94577.69;4991676;28;20060;-51
2023/03/26 10:43:21;;;;;;;1.60;0.90;;;14.90;61.70;;;9.50;85.06;94586.81;4939308;28;22296;-51
2023/03/26 10:46:20;;;;;;;1.20;0.80;;;15.10;61.20;;;9.68;84.97;94574.69;4989982;28;20083;-54
2023/03/26 10:49:25;;;;;;;3.28;1.33;;;15.20;61.10;;;9.58;82.81;94564.13;4977978;28;20635;-50
2023/03/26 10:52:17;;;;;;;2.17;1.30;;;15.30;60.90;;;9.46;82.93;94569.84;4993656;28;20048;-53
2023/03/26 10:55:07;;;;;;;2.08;1.00;;;15.30;60.30;;;9.57;84.45;94570.53;4977661;28;20101;-55
2023/03/26 10:58:23;;;;;;;3.35;1.20;;;15.30;60.10;;;9.66;84.64;94573.38;4959062;28;20076;-50
2023/03/26 11:01:27;;;;;;;2.65;1.10;;;15.50;59.90;;;9.69;82.39;94557.63;4974028;28;20485;-56
2023/03/26 11:03:55;;;;;;;4.00;1.20;;;15.60;59.60;;;9.76;82.91;94554.63;4964305;28;20119;-52
2023/03/26 11:06:37;;;;;;;4.45;1.60;;;15.70;59.40;;;9.72;83.17;94558.94;4960887;28;20061;-53
2023/03/26 11:09:30;;;;;;;2.93;1.17;;;15.90;58.90;;;10.07;82.41;94554.25;4992857;28;20054;-51
2023/03/26 11:12:41;;;;;;;1.85;0.98;;;16.10;58.80;;;10.27;80.94;94558.56;4965981;28;20030;-56
2023/03/26 11:15:35;;;;;;;2.47;1.30;;;16.30;58.70;;;10.32;79.08;94561.16;4959549;28;20037;-52